Hudson, FL (34667)

11:33 PM EDT on August 24, 2016 (GMT -0400)
Sea Pines | | Change Station

Elev 10 ft 28.38 °N, 82.70 °W | Updated 19 seconds ago

Clear
Clear
81.0 °F
Feels Like 86 °F
N
0.9
Wind Variable Wind from NE
Gusts 7.0 mph

Today
High -- | Low -- °F
--% Chance of Precip.
Yesterday
High -- | Low -- °F
Precip. -- in
Pressure 30.10 in
Visibility 10.0 miles
Clouds Clear
Heat Index 86 °F
Dew Point 74 °F
Humidity 79%
Rainfall 0.23 in
Snow Depth Not available.
7:05 AM 8:00 PM
Waning Gibbous, 50% visible
METAR KBKV 250253Z AUTO 04007KT 10SM CLR 26/22 A3011 RMK AO2 SLP193 T02560222 50002
Pressure 30.10 in
Visibility 10.0 miles
Clouds Clear
Heat Index 86 °F
Dew Point 74 °F
Humidity 79%
Rainfall 0.23 in
Snow Depth Not available.
7:05 AM 8:00 PM
Waning Gibbous, 50% visible
METAR KBKV 250253Z AUTO 04007KT 10SM CLR 26/22 A3011 RMK AO2 SLP193 T02560222 50002

10-Day Weather Forecast

Almanac

Astronomy

Aug. 24, 2016 Rise Set
Actual Time
Civil Twilight
Nautical Twilight
Astronomical Twilight
Moon
Length of Visible Light
Length of Day
Tomorrow will be .
, % of the Moon is Illuminated

Today's Extremes

State Highs State Lows

Community

WunderPhotos

Upload Photos

1,934,789 photos uploaded!

WunderBlog® & News

Nearby

Air Quality

  Air Quality AQ Index Pollutant
Not available.

Snow Depth

Station Depth Elevation

Earthquake Activity

City Distance Mag. Time & Date
Minimum magnitude displayed is 2.5.

Coastal Water Temperatures

Place Temperature

Stations

Nearby Weather Stations

Station Location Temp. Windchill Dew Point Humidity Wind Precip. Elev Updated Type
                   

Watches & Warnings

There are currently no watches in effect.